Time;durP1;ratioP1;P1;durP2;ratioP2;P2;SDS_P1;SDS_P2;PMS_P1;PMS_P2;Temp;Humidity;BMP_temperature;BMP_pressure;BME280_temperature;BME280_humidity;BME280_pressure;Samples;Min_cycle;Max_cycle;Signal;HPM_P1;HPM_P2
2022/12/25 00:02:47;;;;;;;78.57;73.18;;;;;;;;;;10201491;28;20057;-72
2022/12/25 00:07:43;;;;;;;78.85;73.35;;;;;;;;;;10199404;28;20451;-72
2022/12/25 00:12:40;;;;;;;79.00;73.80;;;;;;;;;;10200013;28;20077;-72
2022/12/25 00:17:36;;;;;;;79.85;74.15;;;;;;;;;;10200530;28;20056;-72
2022/12/25 00:22:33;;;;;;;81.00;75.20;;;;;;;;;;10199226;28;20132;-71
2022/12/25 00:27:30;;;;;;;82.18;75.53;;;;;;;;;;10197978;28;20042;-71
2022/12/25 00:32:27;;;;;;;79.70;74.25;;;;;;;;;;10200604;28;20077;-72
2022/12/25 00:37:23;;;;;;;84.20;77.72;;;;;;;;;;10198418;28;20085;-72
2022/12/25 00:42:19;;;;;;;80.00;74.78;;;;;;;;;;10159717;28;20042;-72
2022/12/25 00:47:16;;;;;;;81.32;75.50;;;;;;;;;;10192704;28;20038;-72
2022/12/25 00:52:12;;;;;;;81.60;75.68;;;;;;;;;;10199504;28;20046;-72
2022/12/25 00:57:09;;;;;;;84.57;78.60;;;;;;;;;;10197935;28;20045;-72
2022/12/25 01:02:23;;;;;;;86.07;79.63;;;;;;;;;;10198090;28;20725;-71
2022/12/25 01:07:20;;;;;;;84.82;78.50;;;;;;;;;;10196444;28;20038;-72
2022/12/25 01:12:16;;;;;;;84.60;78.93;;;;;;;;;;10199031;28;20053;-72
2022/12/25 01:17:13;;;;;;;85.68;79.72;;;;;;;;;;10170034;28;20064;-72
2022/12/25 01:22:09;;;;;;;90.28;84.10;;;;;;;;;;10164939;28;20041;-72
2022/12/25 01:27:05;;;;;;;89.28;82.90;;;;;;;;;;10196689;28;20559;-71
2022/12/25 01:32:01;;;;;;;89.47;82.57;;;;;;;;;;10196823;28;20069;-72
2022/12/25 01:36:58;;;;;;;87.90;81.35;;;;;;;;;;10197332;28;20535;-71
2022/12/25 01:41:54;;;;;;;81.00;74.90;;;;;;;;;;10196377;28;20042;-71
2022/12/25 01:46:50;;;;;;;78.40;72.18;;;;;;;;;;10197544;28;20073;-72
2022/12/25 01:51:50;;;;;;;74.90;68.63;;;;;;;;;;10196476;28;20134;-72
2022/12/25 01:56:48;;;;;;;75.15;68.05;;;;;;;;;;10195927;28;20149;-71
2022/12/25 02:01:45;;;;;;;72.30;66.47;;;;;;;;;;10157143;28;20504;-72
2022/12/25 02:06:41;;;;;;;78.18;70.75;;;;;;;;;;10184221;28;20527;-72
2022/12/25 02:11:56;;;;;;;79.45;72.65;;;;;;;;;;10195506;28;20045;-71
2022/12/25 02:16:56;;;;;;;75.10;68.93;;;;;;;;;;10194177;28;20060;-72
2022/12/25 02:22:05;;;;;;;81.07;74.28;;;;;;;;;;10195084;28;20124;-72
2022/12/25 02:27:17;;;;;;;79.88;73.88;;;;;;;;;;10187744;28;20060;-72
2022/12/25 02:32:13;;;;;;;78.18;72.25;;;;;;;;;;10195112;28;20081;-72
2022/12/25 02:37:13;;;;;;;83.47;77.28;;;;;;;;;;10195288;28;20050;-72
2022/12/25 02:42:16;;;;;;;85.25;78.32;;;;;;;;;;10180038;28;20471;-72
2022/12/25 03:08:20;;;;;;;86.93;80.90;;;;;;;;;;10192986;28;20038;-72
2022/12/25 03:13:22;;;;;;;90.95;83.38;;;;;;;;;;10194092;28;20042;-71
2022/12/25 03:18:23;;;;;;;88.13;81.60;;;;;;;;;;10160875;28;20046;-72
2022/12/25 03:28:35;;;;;;;91.28;84.63;;;;;;;;;;10152849;28;20047;-71
2022/12/25 03:35:21;;;;;;;88.95;82.55;;;;;;;;;;10157752;28;20073;-72
2022/12/25 04:37:13;;;;;;;81.95;75.47;;;;;;;;;;10187794;28;20609;-72
2022/12/25 04:42:10;;;;;;;83.50;76.65;;;;;;;;;;10191701;28;20044;-71
2022/12/25 04:47:06;;;;;;;81.97;76.05;;;;;;;;;;10192450;28;20076;-72
2022/12/25 04:52:07;;;;;;;83.10;75.47;;;;;;;;;;10185070;28;20046;-72
2022/12/25 04:57:03;;;;;;;80.95;75.13;;;;;;;;;;10190294;28;20046;-72
2022/12/25 05:01:59;;;;;;;77.32;71.82;;;;;;;;;;10198576;28;20048;-72
2022/12/25 05:06:56;;;;;;;77.95;72.22;;;;;;;;;;10198955;28;20415;-72
2022/12/25 05:11:52;;;;;;;80.38;73.95;;;;;;;;;;10197362;28;20049;-71
2022/12/25 05:16:48;;;;;;;77.47;71.47;;;;;;;;;;10197239;28;20053;-71
2022/12/25 05:21:44;;;;;;;78.32;72.53;;;;;;;;;;10196386;28;20042;-72
2022/12/25 05:26:40;;;;;;;78.93;72.70;;;;;;;;;;10198200;28;20091;-71
2022/12/25 05:31:37;;;;;;;80.28;74.32;;;;;;;;;;10196007;28;20508;-72
2022/12/25 05:36:33;;;;;;;77.43;71.20;;;;;;;;;;10197777;28;20045;-71
2022/12/25 05:41:29;;;;;;;78.07;72.38;;;;;;;;;;10196812;28;20396;-71
2022/12/25 05:46:30;;;;;;;76.22;70.22;;;;;;;;;;10196029;28;20053;-72
2022/12/25 05:51:26;;;;;;;78.28;72.10;;;;;;;;;;10194952;28;20562;-71
2022/12/25 05:56:22;;;;;;;77.85;71.63;;;;;;;;;;10196530;28;20085;-71
2022/12/25 06:01:20;;;;;;;78.07;72.07;;;;;;;;;;10195754;28;20049;-72
2022/12/25 06:06:16;;;;;;;76.32;69.85;;;;;;;;;;10196565;28;20125;-72
2022/12/25 06:11:13;;;;;;;78.32;72.43;;;;;;;;;;10195208;28;20050;-72
2022/12/25 06:16:10;;;;;;;77.00;71.10;;;;;;;;;;10194939;28;20077;-72
2022/12/25 06:21:08;;;;;;;77.03;70.95;;;;;;;;;;10196266;28;20042;-72
2022/12/25 06:26:08;;;;;;;76.68;70.68;;;;;;;;;;10194802;28;20556;-72
2022/12/25 06:31:06;;;;;;;76.00;69.97;;;;;;;;;;10195559;28;20046;-72
2022/12/25 06:36:03;;;;;;;76.57;70.03;;;;;;;;;;10194045;28;20412;-71
2022/12/25 06:41:03;;;;;;;76.82;70.18;;;;;;;;;;10195211;28;20073;-71
2022/12/25 06:46:03;;;;;;;76.78;70.38;;;;;;;;;;10193993;28;20053;-71
2022/12/25 06:51:01;;;;;;;75.25;68.88;;;;;;;;;;10195393;28;20041;-71
2022/12/25 06:56:04;;;;;;;77.38;70.93;;;;;;;;;;10193840;28;20046;-72
2022/12/25 07:01:05;;;;;;;75.35;68.80;;;;;;;;;;10194487;28;20065;-71
2022/12/25 07:06:01;;;;;;;76.97;70.60;;;;;;;;;;10193270;28;20054;-72
2022/12/25 07:10:58;;;;;;;80.90;73.72;;;;;;;;;;10192828;28;20449;-71
2022/12/25 07:15:55;;;;;;;77.25;70.90;;;;;;;;;;10194202;28;20077;-71
2022/12/25 07:20:54;;;;;;;74.88;68.70;;;;;;;;;;10192666;28;20061;-71
2022/12/25 07:25:53;;;;;;;75.78;69.00;;;;;;;;;;10193468;28;20050;-71
2022/12/25 07:30:50;;;;;;;78.35;71.72;;;;;;;;;;10157104;28;20711;-72
2022/12/25 07:35:46;;;;;;;75.55;69.60;;;;;;;;;;10175770;28;20045;-72
2022/12/25 07:40:44;;;;;;;78.82;72.70;;;;;;;;;;10191175;28;20672;-72
2022/12/25 07:45:40;;;;;;;79.72;73.13;;;;;;;;;;10192747;28;20420;-72
2022/12/25 07:50:37;;;;;;;78.32;71.85;;;;;;;;;;10192409;28;20566;-72
2022/12/25 07:55:33;;;;;;;79.70;72.88;;;;;;;;;;10192484;28;20140;-71
2022/12/25 08:00:31;;;;;;;79.07;72.32;;;;;;;;;;10193213;28;20567;-71
2022/12/25 08:05:27;;;;;;;80.88;74.15;;;;;;;;;;10191814;28;20520;-71
2022/12/25 08:10:24;;;;;;;79.82;73.38;;;;;;;;;;10192862;28;20562;-71
2022/12/25 08:15:20;;;;;;;76.72;70.63;;;;;;;;;;10198938;28;20080;-72
2022/12/25 08:20:16;;;;;;;82.07;75.25;;;;;;;;;;10200579;28;20133;-71
2022/12/25 08:25:14;;;;;;;79.35;72.70;;;;;;;;;;10199210;28;20538;-71
2022/12/25 08:30:11;;;;;;;77.47;71.50;;;;;;;;;;10200781;28;20049;-71
2022/12/25 08:35:07;;;;;;;81.05;74.68;;;;;;;;;;10198933;28;20050;-71
2022/12/25 08:40:04;;;;;;;82.97;75.93;;;;;;;;;;10197123;28;20515;-71
2022/12/25 08:45:00;;;;;;;78.55;71.65;;;;;;;;;;10176426;28;20050;-71
2022/12/25 08:49:57;;;;;;;78.38;71.95;;;;;;;;;;10198273;28;20450;-71
2022/12/25 08:54:53;;;;;;;76.78;70.72;;;;;;;;;;10197879;28;20060;-72
2022/12/25 08:59:49;;;;;;;81.43;74.13;;;;;;;;;;10198116;28;20053;-71
2022/12/25 09:04:46;;;;;;;79.32;72.97;;;;;;;;;;10198662;28;20046;-72
2022/12/25 09:09:42;;;;;;;75.95;70.25;;;;;;;;;;10195908;28;20054;-71
2022/12/25 09:14:38;;;;;;;75.35;69.22;;;;;;;;;;10198342;28;20133;-72
2022/12/25 09:19:34;;;;;;;75.60;69.60;;;;;;;;;;10196807;28;20062;-71
2022/12/25 09:24:31;;;;;;;78.47;72.07;;;;;;;;;;10196856;28;20085;-72
2022/12/25 09:29:27;;;;;;;78.75;72.10;;;;;;;;;;10196699;28;20200;-72
2022/12/25 09:34:23;;;;;;;74.93;69.10;;;;;;;;;;10197948;28;20512;-72
2022/12/25 09:39:19;;;;;;;71.85;66.63;;;;;;;;;;10196360;28;20081;-71
2022/12/25 09:44:24;;;;;;;73.90;67.78;;;;;;;;;;10197167;28;20132;-72
2022/12/25 09:49:28;;;;;;;69.28;64.28;;;;;;;;;;10195972;28;20563;-72
2022/12/25 09:54:35;;;;;;;72.35;66.72;;;;;;;;;;10196090;28;20588;-71
2022/12/25 09:59:32;;;;;;;68.82;63.20;;;;;;;;;;10196560;28;20579;-71
2022/12/25 10:04:41;;;;;;;69.13;63.80;;;;;;;;;;10195717;28;20042;-72
2022/12/25 10:09:49;;;;;;;69.65;63.90;;;;;;;;;;10196834;28;20053;-72
2022/12/25 10:14:51;;;;;;;70.30;64.18;;;;;;;;;;10195164;28;20450;-71
2022/12/25 10:20:07;;;;;;;68.05;63.03;;;;;;;;;;10195890;28;20056;-72
2022/12/25 10:25:05;;;;;;;65.25;60.05;;;;;;;;;;10194799;28;20046;-71
2022/12/25 10:30:05;;;;;;;69.97;64.75;;;;;;;;;;10194990;28;20058;-70
2022/12/25 10:35:01;;;;;;;65.75;60.25;;;;;;;;;;10194693;28;20494;-70
2022/12/25 10:39:57;;;;;;;67.20;61.60;;;;;;;;;;10176368;28;20050;-71
2022/12/25 10:44:55;;;;;;;63.75;58.92;;;;;;;;;;10169953;28;20042;-72
2022/12/25 10:49:52;;;;;;;67.63;61.75;;;;;;;;;;10194142;28;20042;-72
2022/12/25 10:54:49;;;;;;;66.55;61.63;;;;;;;;;;10194744;28;20080;-72
2022/12/25 10:59:46;;;;;;;65.28;60.33;;;;;;;;;;10193630;28;20584;-72
2022/12/25 11:04:43;;;;;;;67.90;62.40;;;;;;;;;;10193186;28;20042;-71
2022/12/25 11:09:39;;;;;;;72.50;66.43;;;;;;;;;;10208923;28;20137;-72
2022/12/25 11:14:35;;;;;;;68.15;62.45;;;;;;;;;;10193039;28;20061;-72
2022/12/25 11:19:33;;;;;;;69.88;64.40;;;;;;;;;;10193628;28;20104;-72
2022/12/25 11:24:30;;;;;;;67.57;62.03;;;;;;;;;;10193065;28;20128;-72
2022/12/25 11:29:42;;;;;;;71.65;66.03;;;;;;;;;;10192497;28;20388;-72
2022/12/25 11:34:45;;;;;;;69.50;64.30;;;;;;;;;;10193304;28;20116;-72
2022/12/25 11:39:42;;;;;;;69.57;64.25;;;;;;;;;;10191904;28;20049;-72
2022/12/25 11:44:44;;;;;;;65.72;60.53;;;;;;;;;;10193213;28;20042;-72
2022/12/25 11:49:41;;;;;;;;;;;;;;;;;;10191350;28;20064;-71
2022/12/25 11:54:55;;;;;;;68.53;63.33;;;;;;;;;;10193162;28;19960;-72
2022/12/25 11:59:54;;;;;;;72.38;66.85;;;;;;;;;;10192095;28;20072;-72
2022/12/25 12:04:59;;;;;;;67.85;62.63;;;;;;;;;;10206615;28;20125;-72
2022/12/25 12:10:01;;;;;;;70.78;65.15;;;;;;;;;;10192698;28;20530;-71
2022/12/25 12:15:16;;;;;;;67.07;61.92;;;;;;;;;;10183812;28;20058;-71
2022/12/25 12:20:33;;;;;;;66.78;61.83;;;;;;;;;;10191512;28;20081;-71
2022/12/25 12:25:30;;;;;;;67.63;62.17;;;;;;;;;;10192089;28;20052;-71
2022/12/25 12:30:27;;;;;;;66.55;61.17;;;;;;;;;;10191222;28;20144;-72
2022/12/25 12:35:29;;;;;;;68.65;63.05;;;;;;;;;;10191957;28;20046;-72
2022/12/25 12:40:30;;;;;;;67.93;62.75;;;;;;;;;;10191335;28;20042;-72
2022/12/25 12:45:28;;;;;;;66.57;61.15;;;;;;;;;;10192685;28;20495;-72
2022/12/25 12:50:29;;;;;;;67.22;62.00;;;;;;;;;;10191700;28;20509;-71
2022/12/25 12:55:27;;;;;;;67.70;62.63;;;;;;;;;;10190713;28;20124;-72
2022/12/25 13:00:23;;;;;;;70.75;64.90;;;;;;;;;;10195355;28;20534;-72
2022/12/25 13:05:38;;;;;;;72.45;66.80;;;;;;;;;;10198877;28;20041;-72
2022/12/25 13:10:37;;;;;;;69.70;63.97;;;;;;;;;;10197677;28;20049;-72
2022/12/25 13:15:34;;;;;;;73.28;67.65;;;;;;;;;;10213958;28;20121;-72
2022/12/25 13:20:34;;;;;;;72.25;66.07;;;;;;;;;;10197620;28;20121;-72
2022/12/25 13:25:31;;;;;;;72.88;67.20;;;;;;;;;;10196737;28;20052;-70
2022/12/25 13:30:27;;;;;;;73.70;67.18;;;;;;;;;;10198472;28;20535;-71
2022/12/25 13:35:23;;;;;;;74.40;68.47;;;;;;;;;;10196150;28;20048;-72
2022/12/25 13:40:24;;;;;;;70.25;65.18;;;;;;;;;;10197903;28;20058;-72
2022/12/25 13:45:22;;;;;;;70.97;65.18;;;;;;;;;;10196744;28;20129;-71
2022/12/25 13:50:18;;;;;;;71.18;65.13;;;;;;;;;;10196687;28;20132;-72
2022/12/25 13:55:19;;;;;;;71.63;66.43;;;;;;;;;;10195119;28;20446;-71
2022/12/25 14:00:35;;;;;;;70.63;65.28;;;;;;;;;;10197187;28;20050;-71
2022/12/25 14:05:34;;;;;;;70.43;64.75;;;;;;;;;;10195094;28;20129;-71
2022/12/25 14:10:39;;;;;;;71.13;65.93;;;;;;;;;;10194467;28;20049;-71
2022/12/25 14:15:37;;;;;;;73.43;67.72;;;;;;;;;;10196110;28;20092;-72
2022/12/25 14:20:35;;;;;;;70.68;65.05;;;;;;;;;;10194560;28;20531;-72
2022/12/25 14:25:49;;;;;;;74.05;68.35;;;;;;;;;;10195317;28;20053;-72
2022/12/25 14:30:46;;;;;;;72.88;67.38;;;;;;;;;;10181487;28;20046;-72
2022/12/25 14:35:43;;;;;;;72.57;67.20;;;;;;;;;;10177627;28;20081;-72
2022/12/25 14:40:42;;;;;;;72.32;67.07;;;;;;;;;;10194768;28;20056;-72
2022/12/25 14:45:38;;;;;;;70.30;64.82;;;;;;;;;;10193921;28;20046;-72
2022/12/25 14:50:38;;;;;;;74.90;68.60;;;;;;;;;;10192603;28;20050;-72
2022/12/25 14:55:36;;;;;;;73.18;67.00;;;;;;;;;;10194846;28;20041;-71
2022/12/25 15:00:36;;;;;;;73.40;67.55;;;;;;;;;;10193909;28;20144;-71
2022/12/25 15:05:32;;;;;;;75.60;69.60;;;;;;;;;;10192961;28;20046;-68
2022/12/25 15:10:29;;;;;;;75.72;70.22;;;;;;;;;;10194395;28;20100;-68
2022/12/25 15:15:50;;;;;;;77.95;71.82;;;;;;;;;;10193454;28;20061;-68
2022/12/25 15:20:50;;;;;;;69.27;63.60;;;;;;;;;;10193350;28;20042;-68
2022/12/25 15:25:46;;;;;;;72.03;66.30;;;;;;;;;;10175456;28;20053;-68
2022/12/25 15:30:43;;;;;;;73.78;68.13;;;;;;;;;;10193360;28;20057;-68
2022/12/25 15:35:39;;;;;;;70.43;64.80;;;;;;;;;;10193605;28;20069;-68
2022/12/25 15:40:35;;;;;;;73.13;67.97;;;;;;;;;;10191967;28;20065;-68
2022/12/25 15:45:32;;;;;;;72.22;67.03;;;;;;;;;;10193451;28;20052;-69
2022/12/25 15:50:29;;;;;;;72.90;67.15;;;;;;;;;;10192560;28;20060;-69
2022/12/25 15:55:25;;;;;;;68.97;64.05;;;;;;;;;;10193522;28;20048;-68
2022/12/25 16:00:22;;;;;;;67.68;62.55;;;;;;;;;;10192924;28;20435;-69
2022/12/25 16:05:18;;;;;;;70.60;65.13;;;;;;;;;;10191602;28;20053;-68
2022/12/25 16:10:18;;;;;;;73.70;67.65;;;;;;;;;;10192610;28;20050;-69
2022/12/25 16:15:14;;;;;;;71.22;65.75;;;;;;;;;;10192078;28;20061;-69
2022/12/25 16:20:11;;;;;;;69.88;64.00;;;;;;;;;;10192368;28;20042;-69
2022/12/25 16:25:15;;;;;;;72.05;66.60;;;;;;;;;;10191753;28;20058;-69
2022/12/25 16:30:13;;;;;;;67.32;61.88;;;;;;;;;;10191190;28;20052;-69
2022/12/25 16:35:10;;;;;;;67.32;62.13;;;;;;;;;;10196980;28;20092;-69
2022/12/25 16:40:08;;;;;;;67.05;61.75;;;;;;;;;;10173421;28;20060;-69
2022/12/25 16:45:04;;;;;;;66.10;61.00;;;;;;;;;;10176031;28;20058;-69
2022/12/25 16:50:02;;;;;;;66.47;61.17;;;;;;;;;;10199299;28;20089;-69
2022/12/25 16:54:59;;;;;;;68.15;62.92;;;;;;;;;;10198557;28;20037;-69
2022/12/25 16:59:56;;;;;;;68.53;63.45;;;;;;;;;;10199046;28;20567;-68
2022/12/25 17:04:53;;;;;;;66.35;61.35;;;;;;;;;;10197868;28;20572;-69
2022/12/25 17:09:49;;;;;;;67.22;62.08;;;;;;;;;;10198969;28;20124;-68
2022/12/25 17:14:45;;;;;;;66.47;61.33;;;;;;;;;;10197685;28;20054;-69
2022/12/25 17:19:42;;;;;;;68.10;62.63;;;;;;;;;;10197089;28;20062;-69
2022/12/25 17:24:40;;;;;;;67.43;62.03;;;;;;;;;;10197229;28;20069;-70
2022/12/25 17:29:39;;;;;;;66.75;61.83;;;;;;;;;;10196556;28;20046;-69
2022/12/25 17:34:36;;;;;;;67.15;61.70;;;;;;;;;;10197759;28;20108;-70
2022/12/25 17:39:32;;;;;;;67.22;61.65;;;;;;;;;;10196548;28;20128;-69
2022/12/25 17:44:28;;;;;;;67.78;62.22;;;;;;;;;;10196302;28;20077;-70
2022/12/25 17:49:25;;;;;;;67.90;62.70;;;;;;;;;;10196289;28;20041;-69
2022/12/25 17:54:21;;;;;;;69.53;64.45;;;;;;;;;;10197242;28;20057;-70
2022/12/25 17:59:17;;;;;;;71.00;65.45;;;;;;;;;;10195599;28;20050;-70
2022/12/25 18:04:14;;;;;;;69.80;64.32;;;;;;;;;;10196802;28;20073;-70
2022/12/25 18:09:11;;;;;;;70.13;64.95;;;;;;;;;;10195244;28;20042;-69
2022/12/25 18:14:10;;;;;;;69.50;64.38;;;;;;;;;;10196507;28;20049;-69
2022/12/25 18:19:07;;;;;;;71.72;66.32;;;;;;;;;;10158586;28;20074;-69
2022/12/25 18:24:04;;;;;;;73.35;67.97;;;;;;;;;;10164737;28;20057;-70
2022/12/25 18:29:01;;;;;;;69.30;64.28;;;;;;;;;;10194667;28;20053;-70
2022/12/25 18:33:58;;;;;;;70.00;64.95;;;;;;;;;;10194792;28;20074;-69
2022/12/25 18:38:55;;;;;;;68.63;63.72;;;;;;;;;;10195224;28;20049;-69
2022/12/25 18:43:51;;;;;;;70.70;65.50;;;;;;;;;;10209251;28;20526;-70
2022/12/25 18:48:51;;;;;;;71.00;65.90;;;;;;;;;;10195142;28;20913;-69
2022/12/25 18:53:48;;;;;;;70.97;65.78;;;;;;;;;;10194014;28;20107;-70
2022/12/25 18:58:45;;;;;;;69.72;64.70;;;;;;;;;;10194194;28;20060;-69
2022/12/25 19:03:42;;;;;;;69.30;64.20;;;;;;;;;;10193692;28;20046;-70
2022/12/25 19:08:38;;;;;;;68.75;63.95;;;;;;;;;;10194396;28;20041;-70
2022/12/25 19:13:34;;;;;;;71.47;66.57;;;;;;;;;;10193149;28;20128;-69
2022/12/25 19:18:31;;;;;;;70.63;65.32;;;;;;;;;;10193000;28;20416;-70
2022/12/25 19:23:27;;;;;;;72.38;67.25;;;;;;;;;;10192773;28;20598;-70
2022/12/25 19:28:24;;;;;;;71.28;66.28;;;;;;;;;;10192658;28;20073;-69
2022/12/25 19:33:20;;;;;;;70.97;65.95;;;;;;;;;;10193472;28;20068;-70
2022/12/25 19:38:18;;;;;;;71.15;65.97;;;;;;;;;;10192386;28;20084;-70
2022/12/25 19:43:14;;;;;;;69.68;64.78;;;;;;;;;;10193669;28;20207;-71
2022/12/25 19:48:10;;;;;;;70.78;65.93;;;;;;;;;;10192487;28;20411;-70
2022/12/25 19:53:07;;;;;;;70.32;65.38;;;;;;;;;;10193041;28;20447;-69
2022/12/25 19:58:03;;;;;;;69.72;64.75;;;;;;;;;;10191946;28;20440;-69
2022/12/25 20:03:00;;;;;;;68.32;63.70;;;;;;;;;;10192041;28;20125;-70
2022/12/25 20:07:56;;;;;;;69.72;64.68;;;;;;;;;;10193962;28;20591;-70
2022/12/25 20:12:52;;;;;;;67.72;62.95;;;;;;;;;;10199956;28;20120;-70
2022/12/25 20:17:49;;;;;;;66.82;62.33;;;;;;;;;;10200661;28;20061;-70
2022/12/25 20:22:45;;;;;;;65.32;60.72;;;;;;;;;;10200145;28;20056;-70
2022/12/25 20:27:41;;;;;;;66.93;62.50;;;;;;;;;;10200330;28;20428;-70
2022/12/25 20:32:38;;;;;;;65.55;60.88;;;;;;;;;;10199402;28;20129;-70
2022/12/25 20:37:37;;;;;;;63.38;59.08;;;;;;;;;;10199658;28;20050;-69
2022/12/25 20:42:34;;;;;;;64.38;59.97;;;;;;;;;;10198801;28;20045;-70
2022/12/25 20:47:30;;;;;;;62.88;58.58;;;;;;;;;;10198211;28;20160;-69
2022/12/25 20:52:26;;;;;;;64.82;60.47;;;;;;;;;;10199496;28;20141;-69
2022/12/25 20:57:22;;;;;;;64.63;60.22;;;;;;;;;;10198102;28;20133;-69
2022/12/25 21:02:19;;;;;;;65.75;61.35;;;;;;;;;;10199239;28;20069;-69
2022/12/25 21:07:31;;;;;;;66.45;62.03;;;;;;;;;;10197506;28;20252;-70
2022/12/25 21:12:27;;;;;;;64.55;60.15;;;;;;;;;;10199411;28;20133;-70
2022/12/25 21:17:24;;;;;;;64.55;60.15;;;;;;;;;;10197348;28;20071;-70
2022/12/25 21:22:20;;;;;;;64.93;60.63;;;;;;;;;;10198272;28;20046;-69
2022/12/25 21:27:16;;;;;;;65.15;60.75;;;;;;;;;;10196743;28;20066;-72
2022/12/25 21:37:30;;;;;;;67.90;63.40;;;;;;;;;;10197586;28;20423;-70
2022/12/25 21:42:26;;;;;;;64.93;60.42;;;;;;;;;;10196973;28;20049;-70
2022/12/25 21:47:22;;;;;;;66.55;61.85;;;;;;;;;;10196879;28;20125;-70
2022/12/25 21:52:18;;;;;;;65.60;61.10;;;;;;;;;;10196242;28;20081;-69
2022/12/25 21:57:15;;;;;;;67.82;63.22;;;;;;;;;;10195699;28;20049;-70
2022/12/25 22:02:11;;;;;;;67.60;63.08;;;;;;;;;;10197047;28;20516;-70
2022/12/25 22:07:16;;;;;;;68.35;63.83;;;;;;;;;;10195107;28;20050;-70
2022/12/25 22:22:46;;;;;;;70.15;65.30;;;;;;;;;;10193532;28;20042;-70
2022/12/25 22:27:44;;;;;;;69.55;64.95;;;;;;;;;;10192586;28;20563;-70
2022/12/25 22:32:40;;;;;;;69.43;64.63;;;;;;;;;;10194023;28;20137;-69
2022/12/25 22:37:36;;;;;;;67.13;62.67;;;;;;;;;;10195066;28;20056;-69
2022/12/25 22:42:33;;;;;;;69.28;64.68;;;;;;;;;;10194307;28;20120;-67
2022/12/25 22:47:30;;;;;;;73.68;68.95;;;;;;;;;;10194857;28;20053;-68
2022/12/25 22:52:26;;;;;;;71.68;66.90;;;;;;;;;;10194048;28;20053;-67
2022/12/25 22:57:22;;;;;;;72.55;67.75;;;;;;;;;;10195143;28;20605;-68
2022/12/25 23:02:19;;;;;;;72.75;67.95;;;;;;;;;;10193666;28;20065;-68
2022/12/25 23:07:16;;;;;;;70.53;65.95;;;;;;;;;;10194137;28;20053;-68
2022/12/25 23:14:37;;;;;;;70.72;65.95;;;;;;;;;;10155167;28;20579;-67
2022/12/25 23:27:58;;;;;;;71.63;66.90;;;;;;;;;;10178059;28;20128;-67
2022/12/25 23:32:55;;;;;;;69.10;64.25;;;;;;;;;;10193807;28;20077;-67
2022/12/25 23:37:52;;;;;;;70.70;65.93;;;;;;;;;;10192436;28;20057;-67
2022/12/25 23:42:49;;;;;;;71.13;66.22;;;;;;;;;;10191902;28;20574;-67
2022/12/25 23:47:45;;;;;;;69.10;64.32;;;;;;;;;;10193292;28;20140;-68
2022/12/25 23:52:41;;;;;;;70.82;65.43;;;;;;;;;;10191995;28;20056;-68
2022/12/25 23:57:37;;;;;;;69.28;64.07;;;;;;;;;;10192961;28;20562;-67
